createdAt,value
2018-02-22T00:01:09.560Z,1.93
2018-02-22T00:03:37.086Z,1.86
2018-02-22T00:06:04.983Z,1.80
2018-02-22T00:08:32.846Z,1.85
2018-02-22T00:11:00.426Z,1.78
2018-02-22T00:13:27.972Z,1.73
2018-02-22T00:15:55.521Z,1.79
2018-02-22T00:18:23.075Z,1.83
2018-02-22T00:20:50.611Z,1.73
2018-02-22T00:23:19.459Z,1.74
2018-02-22T00:25:47.091Z,1.81
2018-02-22T00:28:14.870Z,1.79
2018-02-22T00:30:42.412Z,1.69
2018-02-22T00:33:09.987Z,1.75
2018-02-22T00:35:37.533Z,1.69
2018-02-22T00:38:05.075Z,1.68
2018-02-22T00:40:32.621Z,1.65
2018-02-22T00:43:00.191Z,1.67
2018-02-22T00:45:27.737Z,1.66
2018-02-22T00:47:55.559Z,1.66
2018-02-22T00:50:23.426Z,1.68
2018-02-22T00:52:51.008Z,1.59
2018-02-22T00:55:18.855Z,1.61
2018-02-22T00:57:46.394Z,1.50
2018-02-22T01:00:13.918Z,1.52
2018-02-22T01:02:41.750Z,1.49
2018-02-22T01:05:09.276Z,1.48
2018-02-22T01:07:36.876Z,1.53
2018-02-22T01:10:04.429Z,1.55
2018-02-22T01:12:31.970Z,1.51
2018-02-22T01:14:59.759Z,1.61
2018-02-22T01:17:27.295Z,1.61
2018-02-22T01:19:55.181Z,1.66
2018-02-22T01:22:23.048Z,1.62
2018-02-22T01:24:50.575Z,1.74
2018-02-22T01:27:18.110Z,1.64
2018-02-22T01:29:45.669Z,1.75
2018-02-22T01:32:13.202Z,1.78
2018-02-22T01:34:40.728Z,1.69
2018-02-22T01:37:08.526Z,1.70
2018-02-22T01:39:36.058Z,1.71
2018-02-22T01:42:03.619Z,1.70
2018-02-22T01:44:31.155Z,1.84
2018-02-22T01:46:58.685Z,1.79
2018-02-22T01:49:26.477Z,1.81
2018-02-22T01:51:54.290Z,1.76
2018-02-22T01:54:22.056Z,1.76
2018-02-22T01:56:49.596Z,1.73
2018-02-22T01:59:17.384Z,1.73
2018-02-22T02:01:44.926Z,1.70
2018-02-22T02:04:13.218Z,1.77
2018-02-22T02:06:40.742Z,1.69
2018-02-22T02:09:08.291Z,1.79
2018-02-22T02:11:35.805Z,1.69
2018-02-22T02:14:03.358Z,1.70
2018-02-22T02:16:30.945Z,1.75
2018-02-22T02:18:58.456Z,1.70
2018-02-22T02:21:26.002Z,1.65
2018-02-22T02:23:53.806Z,1.70
2018-02-22T02:26:21.338Z,1.61
2018-02-22T02:28:48.916Z,1.59
2018-02-22T02:31:16.447Z,1.59
2018-02-22T02:33:44.048Z,1.63
2018-02-22T02:36:11.573Z,1.57
2018-02-22T02:38:39.376Z,1.52
2018-02-22T02:41:06.915Z,1.57
2018-02-22T02:43:34.472Z,1.52
2018-02-22T02:46:02.032Z,1.53
2018-02-22T02:48:29.595Z,1.64
2018-02-22T02:50:57.119Z,1.60
2018-02-22T02:53:24.663Z,1.63
2018-02-22T02:55:52.190Z,1.57
2018-02-22T02:58:19.753Z,1.57
2018-02-22T03:00:47.315Z,1.52
2018-02-22T03:03:14.830Z,1.48
2018-02-22T03:05:42.430Z,1.48
2018-02-22T03:08:09.958Z,1.50
2018-02-22T03:10:37.521Z,1.41
2018-02-22T03:13:05.055Z,1.34
2018-02-22T03:15:32.641Z,1.41
2018-02-22T03:18:00.172Z,1.36
2018-02-22T03:20:28.014Z,1.34
2018-02-22T03:22:55.551Z,1.39
2018-02-22T03:25:23.356Z,1.42
2018-02-22T03:27:51.208Z,1.42
2018-02-22T03:30:18.756Z,1.46
2018-02-22T03:32:46.302Z,1.42
2018-02-22T03:35:13.867Z,1.49
2018-02-22T03:37:41.653Z,1.50
2018-02-22T03:40:09.178Z,1.41
2018-02-22T03:42:36.979Z,1.39
2018-02-22T03:45:04.494Z,1.44
2018-02-22T03:47:32.079Z,1.39
2018-02-22T03:49:59.624Z,1.47
2018-02-22T03:52:27.157Z,1.47
2018-02-22T03:54:54.720Z,1.40
2018-02-22T03:57:22.291Z,1.42
2018-02-22T03:59:50.134Z,1.45
2018-02-22T04:02:17.659Z,1.41
2018-02-22T04:04:45.201Z,1.44
2018-02-22T04:07:12.793Z,1.41
2018-02-22T04:09:40.308Z,1.27
2018-02-22T04:12:07.877Z,1.19
2018-02-22T04:14:35.673Z,1.14
2018-02-22T04:17:03.291Z,1.11
2018-02-22T04:19:30.846Z,1.04
2018-02-22T04:21:58.370Z,1.00
2018-02-22T04:24:25.935Z,0.98
2018-02-22T04:26:53.463Z,0.97
2018-02-22T04:29:20.986Z,0.99
2018-02-22T04:31:48.522Z,0.97
2018-02-22T04:34:16.042Z,0.92
2018-02-22T04:36:43.600Z,0.94
2018-02-22T04:39:11.393Z,0.92
2018-02-22T04:41:38.922Z,0.94
2018-02-22T04:44:06.482Z,0.93
2018-02-22T04:46:34.006Z,0.86
2018-02-22T04:49:01.554Z,0.84
2018-02-22T04:51:29.087Z,0.86
2018-02-22T04:53:56.618Z,0.90
2018-02-22T04:56:24.520Z,0.93
2018-02-22T04:58:52.932Z,0.85
2018-02-22T05:01:20.485Z,0.91
2018-02-22T05:03:48.082Z,0.81
2018-02-22T05:06:15.658Z,0.82
2018-02-22T05:08:43.226Z,0.80
2018-02-22T05:11:10.747Z,0.79
2018-02-22T05:13:38.295Z,0.68
2018-02-22T05:16:05.827Z,0.72
2018-02-22T05:18:33.383Z,0.64
2018-02-22T05:21:00.952Z,0.65
2018-02-22T05:23:28.813Z,0.63
2018-02-22T05:25:56.382Z,0.68
2018-02-22T05:28:23.915Z,0.63
2018-02-22T05:30:51.456Z,0.70
2018-02-22T05:33:18.999Z,0.61
2018-02-22T05:35:46.524Z,0.60
2018-02-22T05:38:14.122Z,0.58
2018-02-22T05:40:41.683Z,0.60
2018-02-22T05:43:09.427Z,0.58
2018-02-22T05:45:36.961Z,0.64
2018-02-22T05:48:04.730Z,0.67
2018-02-22T05:50:33.256Z,0.58
2018-02-22T05:53:00.771Z,0.61
2018-02-22T05:55:28.310Z,0.55
2018-02-22T05:57:55.880Z,0.53
2018-02-22T06:00:23.403Z,0.50
2018-02-22T06:02:51.004Z,0.45
2018-02-22T06:05:18.552Z,0.46
2018-02-22T06:07:46.102Z,0.43
2018-02-22T06:10:13.665Z,0.44
2018-02-22T06:12:41.231Z,0.36
2018-02-22T06:15:08.760Z,0.32
2018-02-22T06:17:36.352Z,0.27
2018-02-22T06:20:03.898Z,0.26
2018-02-22T06:22:31.428Z,0.33
2018-02-22T06:24:59.060Z,0.33
2018-02-22T06:27:26.609Z,0.40
2018-02-22T06:29:54.216Z,0.44
2018-02-22T06:32:21.759Z,0.42
2018-02-22T06:34:49.324Z,0.49
2018-02-22T06:37:16.846Z,0.44
2018-02-22T06:39:44.432Z,0.53
2018-02-22T06:42:11.967Z,0.50
2018-02-22T06:44:39.856Z,0.45
2018-02-22T06:47:07.408Z,0.45
2018-02-22T06:49:34.981Z,0.52
2018-02-22T06:52:02.849Z,0.49
2018-02-22T06:54:30.376Z,0.50
2018-02-22T06:56:57.923Z,0.47
2018-02-22T06:59:25.478Z,0.48
2018-02-22T07:01:52.997Z,0.62
2018-02-22T07:04:20.589Z,0.57
2018-02-22T07:06:48.105Z,0.57
2018-02-22T07:09:15.680Z,0.64
2018-02-22T07:11:43.217Z,0.66
2018-02-22T07:14:10.734Z,0.64
2018-02-22T07:16:38.409Z,0.64
2018-02-22T07:19:06.005Z,0.69
2018-02-22T07:21:33.682Z,0.63
2018-02-22T07:24:01.227Z,0.62
2018-02-22T07:26:29.209Z,0.61
2018-02-22T07:28:56.794Z,0.65
2018-02-22T07:31:24.329Z,0.64
2018-02-22T07:33:51.879Z,0.75
2018-02-22T07:36:19.431Z,0.78
2018-02-22T07:38:47.315Z,0.72
2018-02-22T07:41:14.888Z,0.68
2018-02-22T07:43:42.562Z,0.73
2018-02-22T07:46:10.127Z,0.82
2018-02-22T07:48:37.810Z,0.95
2018-02-22T07:51:06.087Z,1.02
2018-02-22T07:53:34.207Z,1.01
2018-02-22T07:56:01.838Z,0.97
2018-02-22T07:58:30.117Z,0.96
2018-02-22T08:00:59.003Z,1.05
2018-02-22T08:03:26.561Z,1.03
2018-02-22T08:05:54.153Z,1.11
2018-02-22T08:08:21.688Z,1.11
2018-02-22T08:10:49.595Z,1.13
2018-02-22T08:13:17.138Z,1.12
2018-02-22T08:15:45.028Z,1.13
2018-02-22T08:18:12.894Z,1.14
2018-02-22T08:20:40.836Z,1.25
2018-02-22T08:23:08.819Z,1.29
2018-02-22T08:25:36.415Z,1.23
2018-02-22T08:28:04.101Z,1.25
2018-02-22T08:30:31.699Z,1.32
2018-02-22T08:32:59.319Z,1.36
2018-02-22T08:35:26.876Z,1.51
2018-02-22T08:37:54.419Z,1.61
2018-02-22T08:40:22.004Z,1.53
2018-02-22T08:42:49.616Z,1.66
2018-02-22T08:45:17.147Z,1.70
2018-02-22T08:47:44.765Z,1.69
2018-02-22T08:50:12.344Z,1.77
2018-02-22T08:52:39.881Z,1.74
2018-02-22T08:55:07.424Z,1.78
2018-02-22T08:57:35.197Z,1.93
2018-02-22T09:00:02.747Z,1.96
2018-02-22T09:02:30.324Z,2.01
2018-02-22T09:04:57.847Z,2.16
2018-02-22T09:07:25.459Z,2.26
2018-02-22T09:09:53.021Z,2.29
2018-02-22T09:12:20.883Z,2.31
2018-02-22T09:14:48.416Z,2.45
2018-02-22T09:17:15.954Z,2.52
2018-02-22T09:19:43.502Z,2.70
2018-02-22T09:22:11.022Z,2.64
2018-02-22T09:24:38.686Z,2.71
2018-02-22T09:27:06.240Z,2.78
2018-02-22T09:29:33.824Z,2.87
2018-02-22T09:32:01.389Z,2.90
2018-02-22T09:34:29.226Z,3.04
2018-02-22T09:36:57.053Z,3.15
2018-02-22T09:39:24.582Z,3.27
2018-02-22T09:41:52.722Z,3.49
2018-02-22T09:44:20.348Z,3.49
2018-02-22T09:46:48.846Z,3.50
2018-02-22T09:49:16.529Z,3.63
2018-02-22T09:51:44.156Z,3.60
2018-02-22T09:54:11.749Z,3.59
2018-02-22T09:56:39.469Z,3.72
2018-02-22T09:59:07.104Z,3.78
2018-02-22T10:01:35.164Z,3.85
2018-02-22T10:04:02.706Z,3.86
2018-02-22T10:06:30.262Z,3.96
2018-02-22T10:08:57.797Z,4.01
2018-02-22T10:11:25.336Z,4.10
2018-02-22T10:13:52.887Z,4.24
2018-02-22T10:16:20.476Z,4.33
2018-02-22T10:18:48.287Z,4.27
2018-02-22T10:21:15.846Z,4.39
2018-02-22T10:23:43.438Z,4.41
2018-02-22T10:26:10.994Z,4.59
2018-02-22T10:28:38.835Z,4.77
2018-02-22T10:31:06.407Z,4.84
2018-02-22T10:33:33.959Z,4.85
2018-02-22T10:36:01.585Z,5.02
2018-02-22T10:38:29.159Z,5.21
2018-02-22T10:40:56.724Z,5.22
2018-02-22T10:43:24.263Z,5.46
2018-02-22T10:45:51.857Z,5.58
2018-02-22T10:48:19.422Z,5.59
2018-02-22T10:50:47.290Z,5.31
2018-02-22T10:53:14.857Z,5.22
2018-02-22T10:55:42.412Z,5.30
2018-02-22T10:58:09.949Z,5.36
2018-02-22T11:00:43.268Z,5.19
2018-02-22T11:03:10.795Z,5.35
2018-02-22T11:05:38.338Z,5.51
2018-02-22T11:08:05.927Z,5.19
2018-02-22T11:10:33.457Z,5.39
2018-02-22T11:13:01.010Z,5.50
2018-02-22T11:15:28.544Z,5.48
2018-02-22T11:17:56.240Z,5.88
2018-02-22T11:20:23.869Z,6.14
2018-02-22T11:22:51.418Z,6.27
2018-02-22T11:25:18.987Z,6.39
2018-02-22T11:27:46.546Z,6.61
2018-02-22T11:30:14.171Z,6.96
2018-02-22T11:32:41.714Z,6.36
2018-02-22T11:35:09.275Z,6.71
2018-02-22T11:37:36.824Z,6.63
2018-02-22T11:40:04.390Z,6.16
2018-02-22T11:42:31.941Z,6.28
2018-02-22T11:44:59.495Z,6.32
2018-02-22T11:47:27.426Z,6.46
2018-02-22T11:49:54.959Z,6.46
2018-02-22T11:52:22.504Z,6.55
2018-02-22T11:54:50.047Z,6.70
2018-02-22T11:57:17.696Z,7.04
2018-02-22T11:59:45.259Z,7.17
2018-02-22T12:02:12.791Z,7.41
2018-02-22T12:04:40.379Z,7.73
2018-02-22T12:07:07.907Z,7.68
2018-02-22T12:09:35.448Z,7.51
2018-02-22T12:12:02.990Z,7.42
2018-02-22T12:14:30.566Z,7.20
2018-02-22T12:16:58.375Z,6.73
2018-02-22T12:19:25.946Z,6.57
2018-02-22T12:21:53.553Z,6.35
2018-02-22T12:24:21.076Z,6.10
2018-02-22T12:26:49.064Z,6.11
2018-02-22T12:29:16.655Z,6.04
2018-02-22T12:31:45.012Z,5.90
2018-02-22T12:34:12.924Z,5.84
2018-02-22T12:36:40.461Z,5.25
2018-02-22T12:39:08.026Z,5.19
2018-02-22T12:41:35.564Z,5.20
2018-02-22T12:44:03.086Z,4.95
2018-02-22T12:46:30.939Z,5.11
2018-02-22T12:48:58.487Z,5.26
2018-02-22T12:51:26.090Z,5.39
2018-02-22T12:53:53.639Z,5.08
2018-02-22T12:56:21.217Z,4.93
2018-02-22T12:58:48.769Z,4.90
2018-02-22T13:01:16.330Z,4.86
2018-02-22T13:03:43.873Z,4.77
2018-02-22T13:06:11.422Z,4.72
2018-02-22T13:08:39.294Z,4.83
2018-02-22T13:11:07.160Z,4.88
2018-02-22T13:13:35.022Z,4.91
2018-02-22T13:16:02.543Z,4.89
2018-02-22T13:18:30.352Z,4.88
2018-02-22T13:20:57.942Z,4.82
2018-02-22T13:23:25.506Z,4.90
2018-02-22T13:25:53.054Z,5.11
2018-02-22T13:28:20.898Z,5.41
2018-02-22T13:30:48.572Z,5.40
2018-02-22T13:33:28.205Z,5.60
2018-02-22T13:35:55.755Z,5.37
2018-02-22T13:38:35.051Z,5.32
2018-02-22T13:41:02.726Z,5.35
2018-02-22T13:43:30.260Z,5.28
2018-02-22T13:45:57.814Z,5.45
2018-02-22T13:48:25.419Z,5.43
2018-02-22T13:51:05.044Z,5.55
2018-02-22T13:53:32.869Z,5.65
2018-02-22T13:56:00.402Z,5.79
2018-02-22T13:58:27.959Z,5.64
2018-02-22T14:01:07.247Z,5.65
2018-02-22T14:03:34.797Z,5.67
2018-02-22T14:06:02.339Z,5.52
2018-02-22T14:08:41.917Z,5.39
2018-02-22T14:11:09.482Z,5.38
2018-02-22T14:13:37.026Z,5.28
2018-02-22T14:16:04.586Z,5.01
2018-02-22T14:18:32.534Z,4.99
2018-02-22T14:21:00.176Z,4.83
2018-02-22T14:23:27.717Z,4.66
2018-02-22T14:25:55.242Z,4.58
2018-02-22T14:28:22.832Z,4.57
2018-02-22T14:30:50.596Z,4.50
2018-02-22T14:33:18.520Z,4.53
2018-02-22T14:35:46.051Z,4.47
2018-02-22T14:38:13.611Z,4.54
2018-02-22T14:40:41.143Z,4.68
2018-02-22T14:43:08.670Z,4.60
2018-02-22T14:45:36.521Z,4.68
2018-02-22T14:48:04.054Z,4.66
2018-02-22T14:50:31.612Z,4.65
2018-02-22T14:52:59.142Z,4.72
2018-02-22T14:55:26.700Z,4.46
2018-02-22T14:57:54.236Z,4.35
2018-02-22T15:00:21.786Z,4.09
2018-02-22T15:02:49.374Z,4.15
2018-02-22T15:05:16.910Z,4.29
2018-02-22T15:07:44.523Z,4.22
2018-02-22T15:10:12.103Z,4.24
2018-02-22T15:12:39.641Z,4.02
2018-02-22T15:15:07.197Z,4.11
2018-02-22T15:17:34.742Z,4.09
2018-02-22T15:20:02.264Z,4.12
2018-02-22T15:22:29.889Z,4.14
2018-02-22T15:24:57.503Z,4.13
2018-02-22T15:27:25.059Z,4.05
2018-02-22T15:29:52.599Z,4.01
2018-02-22T15:32:20.207Z,3.86
2018-02-22T15:34:47.819Z,3.83
2018-02-22T15:37:15.356Z,3.86
2018-02-22T15:39:42.958Z,3.86
2018-02-22T15:42:10.472Z,3.92
2018-02-22T15:44:38.004Z,3.86
2018-02-22T15:47:05.573Z,3.81
2018-02-22T15:49:33.108Z,3.90
2018-02-22T15:52:00.714Z,3.87
2018-02-22T15:54:28.236Z,3.88
2018-02-22T15:56:55.785Z,3.82
2018-02-22T15:59:23.648Z,3.87
2018-02-22T16:01:51.174Z,3.67
2018-02-22T16:04:18.734Z,3.63
2018-02-22T16:06:46.271Z,3.57
2018-02-22T16:09:13.812Z,3.54
2018-02-22T16:11:41.317Z,3.62
2018-02-22T16:14:09.269Z,3.36
2018-02-22T16:16:36.838Z,3.29
2018-02-22T16:19:04.737Z,3.29
2018-02-22T16:21:32.266Z,3.31
2018-02-22T16:23:59.894Z,3.48
2018-02-22T16:26:27.462Z,3.49
2018-02-22T16:28:55.045Z,3.54
2018-02-22T16:31:22.592Z,3.41
2018-02-22T16:33:50.125Z,3.61
2018-02-22T16:36:18.266Z,3.58
2018-02-22T16:38:45.954Z,3.58
2018-02-22T16:41:13.495Z,3.45
2018-02-22T16:43:41.376Z,3.52
2018-02-22T16:46:09.389Z,3.39
2018-02-22T16:48:37.399Z,3.21
2018-02-22T16:51:05.890Z,3.28
2018-02-22T16:53:33.439Z,3.21
2018-02-22T16:56:01.020Z,3.09
2018-02-22T16:58:28.949Z,3.15
2018-02-22T17:00:56.509Z,3.19
2018-02-22T17:05:57.971Z,3.15
2018-02-22T17:08:25.752Z,3.19
2018-02-22T17:10:53.323Z,3.11
2018-02-22T17:13:20.865Z,3.13
2018-02-22T17:15:48.438Z,3.11
2018-02-22T17:18:16.035Z,3.11
2018-02-22T17:20:43.645Z,3.13
2018-02-22T17:23:11.213Z,3.16
2018-02-22T17:25:38.189Z,3.10
2018-02-22T17:28:11.241Z,3.20
2018-02-22T17:30:44.156Z,3.24
2018-02-22T17:33:11.768Z,3.17
2018-02-22T17:38:47.515Z,3.01
2018-02-22T17:41:18.668Z,3.03
2018-02-22T17:43:46.241Z,3.03
2018-02-22T17:46:13.964Z,3.02
2018-02-22T17:48:41.498Z,2.93
2018-02-22T17:51:09.048Z,2.90
2018-02-22T17:53:36.682Z,2.94
2018-02-22T17:56:04.271Z,2.89
2018-02-22T17:58:31.851Z,2.85
2018-02-22T18:00:59.454Z,2.91
2018-02-22T18:03:27.134Z,2.89
2018-02-22T18:05:54.792Z,2.87
2018-02-22T18:08:22.343Z,2.84
2018-02-22T18:10:49.970Z,2.88
2018-02-22T18:13:17.496Z,2.88
2018-02-22T18:15:45.238Z,2.92
2018-02-22T18:18:13.587Z,2.81
2018-02-22T18:20:41.184Z,2.79
2018-02-22T18:23:08.809Z,2.80
2018-02-22T18:25:36.379Z,2.72
2018-02-22T18:28:04.273Z,2.65
2018-02-22T18:30:31.828Z,2.63
2018-02-22T18:32:59.371Z,2.58
2018-02-22T18:35:27.257Z,2.56
2018-02-22T18:37:59.704Z,2.61
2018-02-22T18:40:32.869Z,2.68
2018-02-22T18:43:00.618Z,2.65
2018-02-22T18:45:28.175Z,2.63
2018-02-22T18:47:55.700Z,2.61
2018-02-22T18:50:23.571Z,2.59
2018-02-22T18:52:51.097Z,2.58
2018-02-22T18:55:18.729Z,2.56
2018-02-22T18:57:46.304Z,2.50
2018-02-22T19:00:14.121Z,2.58
2018-02-22T19:02:41.713Z,2.56
2018-02-22T19:05:09.293Z,2.59
2018-02-22T19:07:37.235Z,2.58
2018-02-22T19:10:04.829Z,2.59
2018-02-22T19:12:32.367Z,2.59
2018-02-22T19:15:00.177Z,2.64
2018-02-22T19:17:27.816Z,2.59
2018-02-22T19:19:55.755Z,2.55
2018-02-22T19:22:23.309Z,2.56
2018-02-22T19:24:51.268Z,2.64
2018-02-22T19:27:18.796Z,2.58
2018-02-22T19:29:46.591Z,2.61
2018-02-22T19:32:14.456Z,2.61
2018-02-22T19:34:42.350Z,2.63
2018-02-22T19:37:10.196Z,2.52
2018-02-22T19:39:37.862Z,2.56
2018-02-22T19:42:05.453Z,2.49
2018-02-22T19:44:33.283Z,2.48
2018-02-22T19:47:00.844Z,2.43
2018-02-22T19:49:28.831Z,2.36
2018-02-22T19:51:56.392Z,2.45
2018-02-22T19:54:23.976Z,2.42
2018-02-22T19:56:51.523Z,2.42
2018-02-22T19:59:19.119Z,2.36
2018-02-22T20:01:46.657Z,2.41
2018-02-22T20:04:14.362Z,2.38
2018-02-22T20:06:42.040Z,2.32
2018-02-22T20:09:09.599Z,2.33
2018-02-22T20:11:37.187Z,2.36
2018-02-22T20:14:05.051Z,2.31
2018-02-22T20:16:32.831Z,2.26
2018-02-22T20:19:00.824Z,2.20
2018-02-22T20:21:28.651Z,2.16
2018-02-22T20:23:56.260Z,2.23
2018-02-22T20:26:23.803Z,2.29
2018-02-22T20:28:51.401Z,2.28
2018-02-22T20:31:19.009Z,2.29
2018-02-22T20:33:46.634Z,2.25
2018-02-22T20:36:14.226Z,2.27
2018-02-22T20:38:42.557Z,2.27
2018-02-22T20:41:10.644Z,2.19
2018-02-22T20:43:38.682Z,2.25
2018-02-22T20:46:06.274Z,2.28
2018-02-22T20:48:34.795Z,2.27
2018-02-22T20:51:02.965Z,2.26
2018-02-22T20:53:31.266Z,2.28
2018-02-22T20:55:59.334Z,2.23
2018-02-22T20:58:27.644Z,2.29
2018-02-22T21:00:55.309Z,2.35
2018-02-22T21:03:26.471Z,2.33
2018-02-22T21:05:54.672Z,2.39
2018-02-22T21:08:22.334Z,2.36
2018-02-22T21:10:50.964Z,2.40
2018-02-22T21:13:20.662Z,2.32
2018-02-22T21:15:48.291Z,2.33
2018-02-22T21:18:15.825Z,2.26
2018-02-22T21:20:44.120Z,2.31
2018-02-22T21:23:12.378Z,2.34
2018-02-22T21:25:42.137Z,2.30
2018-02-22T21:28:10.994Z,2.33
2018-02-22T21:30:38.812Z,2.33
2018-02-22T21:35:44.275Z,2.30
2018-02-22T21:38:12.051Z,2.25
2018-02-22T21:40:39.695Z,2.24
2018-02-22T21:43:07.538Z,2.20
2018-02-22T21:45:35.087Z,2.26
2018-02-22T21:48:02.732Z,2.24
2018-02-22T21:50:30.450Z,2.25
2018-02-22T21:52:57.996Z,2.35
2018-02-22T21:55:25.634Z,2.28
2018-02-22T21:57:53.199Z,2.21
2018-02-22T22:00:20.858Z,2.20
2018-02-22T22:02:48.405Z,2.12
2018-02-22T22:05:15.930Z,2.08
2018-02-22T22:07:43.756Z,2.18
2018-02-22T22:10:11.280Z,2.23
2018-02-22T22:12:38.821Z,2.20
2018-02-22T22:15:06.353Z,2.21
2018-02-22T22:17:33.905Z,2.20
2018-02-22T22:20:01.440Z,2.16
2018-02-22T22:22:29.218Z,2.13
2018-02-22T22:24:56.755Z,2.13
2018-02-22T22:27:24.284Z,2.05
2018-02-22T22:29:51.831Z,2.11
2018-02-22T22:32:19.346Z,2.17
2018-02-22T22:34:46.904Z,2.16
2018-02-22T22:37:14.427Z,2.11
2018-02-22T22:39:42.247Z,2.06
2018-02-22T22:42:09.786Z,2.01
2018-02-22T22:44:37.305Z,2.03
2018-02-22T22:47:04.862Z,1.93
2018-02-22T22:49:32.379Z,1.97
2018-02-22T22:51:59.950Z,1.90
2018-02-22T22:54:27.468Z,1.92
2018-02-22T22:56:54.999Z,1.95
2018-02-22T22:59:22.599Z,1.88
2018-02-22T23:01:50.142Z,1.82
2018-02-22T23:04:17.779Z,1.82
2018-02-22T23:06:45.316Z,1.91
2018-02-22T23:09:13.179Z,1.89
2018-02-22T23:11:40.727Z,1.91
2018-02-22T23:14:08.252Z,1.92
2018-02-22T23:16:36.167Z,1.88
2018-02-22T23:19:03.945Z,1.88
2018-02-22T23:21:31.485Z,1.85
2018-02-22T23:23:59.369Z,1.80
2018-02-22T23:26:26.895Z,1.82
2018-02-22T23:28:54.464Z,1.73
2018-02-22T23:31:22.257Z,1.76
2018-02-22T23:33:49.794Z,1.67
2018-02-22T23:36:17.582Z,1.66
2018-02-22T23:38:46.554Z,1.62
2018-02-22T23:41:20.081Z,1.57
2018-02-22T23:43:47.643Z,1.62
2018-02-22T23:46:15.243Z,1.51
2018-02-22T23:48:43.162Z,1.43
2018-02-22T23:51:11.042Z,1.42
2018-02-22T23:53:38.591Z,1.45
2018-02-22T23:56:06.111Z,1.40
2018-02-22T23:58:33.633Z,1.36
